createdAt,value
2023-02-01T00:01:27.896Z,100.00
2023-02-01T00:03:56.156Z,100.00
2023-02-01T00:06:25.782Z,100.00
2023-02-01T00:08:55.523Z,100.00
2023-02-01T00:11:25.018Z,100.00
2023-02-01T00:13:53.874Z,100.00
2023-02-01T00:16:24.696Z,100.00
2023-02-01T00:18:57.215Z,100.00
2023-02-01T00:21:28.142Z,100.00
2023-02-01T00:23:57.134Z,100.00
2023-02-01T00:26:37.337Z,100.00
2023-02-01T00:29:10.377Z,100.00
2023-02-01T00:31:38.578Z,100.00
2023-02-01T00:34:09.886Z,100.00
2023-02-01T00:36:38.616Z,100.00
2023-02-01T00:39:06.764Z,100.00
2023-02-01T00:41:35.761Z,100.00
2023-02-01T00:44:04.946Z,100.00
2023-02-01T00:46:33.670Z,100.00
2023-02-01T00:49:03.248Z,100.00
2023-02-01T00:51:31.944Z,100.00
2023-02-01T00:54:00.318Z,100.00
2023-02-01T00:56:28.819Z,100.00
2023-02-01T00:58:57.660Z,100.00
2023-02-01T01:01:28.316Z,100.00
2023-02-01T01:03:59.334Z,100.00
2023-02-01T01:06:30.403Z,100.00
2023-02-01T01:09:00.879Z,100.00
2023-02-01T01:11:32.529Z,100.00
2023-02-01T01:14:01.690Z,100.00
2023-02-01T01:16:32.039Z,100.00
2023-02-01T01:19:00.898Z,100.00
2023-02-01T01:21:30.309Z,100.00
2023-02-01T01:23:58.994Z,100.00
2023-02-01T01:26:29.033Z,100.00
2023-02-01T01:28:59.129Z,100.00
2023-02-01T01:31:29.066Z,100.00
2023-02-01T01:33:59.650Z,100.00
2023-02-01T01:36:30.014Z,100.00
2023-02-01T01:38:58.687Z,100.00
2023-02-01T01:41:31.978Z,100.00
2023-02-01T01:44:07.746Z,100.00
2023-02-01T01:46:42.042Z,100.00
2023-02-01T01:49:23.436Z,100.00
2023-02-01T01:51:56.941Z,100.00
2023-02-01T01:54:35.844Z,100.00
2023-02-01T01:57:15.608Z,100.00
2023-02-01T01:59:51.878Z,100.00
2023-02-01T02:02:21.205Z,100.00
2023-02-01T02:04:49.864Z,100.00
2023-02-01T02:07:24.678Z,100.00
2023-02-01T02:10:00.848Z,100.00
2023-02-01T02:12:29.922Z,100.00
2023-02-01T02:14:58.732Z,100.00
2023-02-01T02:17:45.541Z,100.00
2023-02-01T02:20:53.643Z,100.00
2023-02-01T02:23:37.086Z,100.00
2023-02-01T02:26:27.473Z,100.00
2023-02-01T02:29:21.459Z,100.00
2023-02-01T02:31:52.637Z,100.00
2023-02-01T02:34:34.295Z,100.00
2023-02-01T02:37:12.406Z,100.00
2023-02-01T02:39:58.909Z,100.00
2023-02-01T02:43:01.634Z,100.00
2023-02-01T02:46:15.024Z,100.00
2023-02-01T02:48:49.886Z,100.00
2023-02-01T02:51:40.557Z,100.00
2023-02-01T02:54:40.987Z,100.00
2023-02-01T02:57:32.592Z,100.00
2023-02-01T03:00:23.465Z,100.00
2023-02-01T03:03:11.792Z,100.00
2023-02-01T03:05:45.392Z,100.00
2023-02-01T03:08:24.204Z,100.00
2023-02-01T03:11:06.919Z,100.00
2023-02-01T03:13:48.707Z,100.00
2023-02-01T03:16:29.257Z,100.00
2023-02-01T03:19:01.391Z,100.00
2023-02-01T03:21:39.152Z,100.00
2023-02-01T03:24:10.888Z,100.00
2023-02-01T03:26:43.515Z,100.00
2023-02-01T03:29:20.810Z,100.00
2023-02-01T03:31:49.379Z,100.00
2023-02-01T03:34:18.443Z,100.00
2023-02-01T03:36:55.313Z,100.00
2023-02-01T03:39:37.517Z,100.00
2023-02-01T03:42:13.967Z,100.00
2023-02-01T03:44:51.074Z,100.00
2023-02-01T03:47:25.084Z,100.00
2023-02-01T03:50:02.380Z,100.00
2023-02-01T03:52:46.225Z,100.00
2023-02-01T03:55:19.208Z,100.00
2023-02-01T03:57:54.356Z,100.00
2023-02-01T04:00:25.988Z,100.00
2023-02-01T04:02:54.988Z,100.00
2023-02-01T04:05:24.343Z,100.00
2023-02-01T04:08:13.346Z,100.00
2023-02-01T04:10:42.033Z,100.00
2023-02-01T04:13:10.822Z,100.00
2023-02-01T04:15:39.509Z,100.00
2023-02-01T04:18:07.786Z,100.00
2023-02-01T04:20:36.063Z,100.00
2023-02-01T04:23:04.344Z,100.00
2023-02-01T04:25:32.489Z,100.00
2023-02-01T04:28:00.893Z,100.00
2023-02-01T04:30:29.310Z,100.00
2023-02-01T04:32:57.451Z,100.00
2023-02-01T04:35:25.628Z,100.00
2023-02-01T04:37:54.123Z,100.00
2023-02-01T04:40:22.737Z,100.00
2023-02-01T04:42:51.377Z,100.00
2023-02-01T04:45:20.264Z,100.00
2023-02-01T04:47:49.873Z,100.00
2023-02-01T04:50:18.319Z,100.00
2023-02-01T04:52:46.693Z,100.00
2023-02-01T04:55:14.918Z,100.00
2023-02-01T04:57:43.183Z,100.00
2023-02-01T05:00:12.485Z,100.00
2023-02-01T05:02:40.858Z,100.00
2023-02-01T05:05:09.882Z,100.00
2023-02-01T05:07:38.756Z,100.00
2023-02-01T05:10:07.846Z,100.00
2023-02-01T05:12:54.756Z,100.00
2023-02-01T05:15:23.036Z,100.00
2023-02-01T05:17:51.209Z,100.00
2023-02-01T05:20:19.381Z,100.00
2023-02-01T05:22:47.577Z,100.00
2023-02-01T05:25:15.897Z,100.00
2023-02-01T05:27:44.214Z,100.00
2023-02-01T05:30:13.305Z,100.00
2023-02-01T05:32:41.584Z,100.00
2023-02-01T05:35:10.169Z,100.00
2023-02-01T05:37:38.453Z,100.00
2023-02-01T05:40:07.859Z,100.00
2023-02-01T05:42:36.386Z,100.00
2023-02-01T05:45:06.388Z,100.00
2023-02-01T05:47:34.830Z,100.00
2023-02-01T05:50:04.543Z,100.00
2023-02-01T05:52:33.450Z,100.00
2023-02-01T05:55:01.707Z,100.00
2023-02-01T05:57:29.835Z,100.00
2023-02-01T06:00:00.211Z,100.00
2023-02-01T06:02:29.022Z,100.00
2023-02-01T06:04:57.580Z,100.00
2023-02-01T06:07:27.133Z,100.00
2023-02-01T06:09:56.394Z,100.00
2023-02-01T06:12:24.765Z,100.00
2023-02-01T06:14:53.245Z,100.00
2023-02-01T06:17:21.625Z,100.00
2023-02-01T06:19:50.210Z,100.00
2023-02-01T06:22:18.587Z,100.00
2023-02-01T06:24:46.771Z,100.00
2023-02-01T06:27:15.756Z,100.00
2023-02-01T06:29:44.385Z,100.00
2023-02-01T06:32:12.821Z,100.00
2023-02-01T06:34:40.900Z,100.00
2023-02-01T06:37:09.172Z,100.00
2023-02-01T06:39:37.242Z,100.00
2023-02-01T06:42:05.418Z,100.00
2023-02-01T06:44:33.592Z,100.00
2023-02-01T06:47:01.956Z,100.00
2023-02-01T06:49:30.452Z,100.00
2023-02-01T06:52:01.361Z,100.00
2023-02-01T06:54:30.718Z,100.00
2023-02-01T06:56:59.177Z,100.00
2023-02-01T06:59:27.555Z,100.00
2023-02-01T07:01:56.199Z,100.00
2023-02-01T07:04:24.420Z,100.00
2023-02-01T07:06:52.600Z,100.00
2023-02-01T07:09:21.272Z,99.59
2023-02-01T07:11:49.423Z,99.85
2023-02-01T07:14:17.726Z,99.78
2023-02-01T07:16:45.907Z,97.99
2023-02-01T07:19:14.585Z,98.67
2023-02-01T07:21:42.964Z,99.95
2023-02-01T07:24:11.144Z,98.67
2023-02-01T07:26:39.673Z,99.83
2023-02-01T07:29:07.999Z,99.77
2023-02-01T07:31:36.488Z,99.93
2023-02-01T07:34:04.962Z,100.00
2023-02-01T07:36:34.681Z,100.00
2023-02-01T07:39:04.603Z,100.00
2023-02-01T07:41:32.735Z,100.00
2023-02-01T07:44:01.257Z,100.00
2023-02-01T07:46:29.640Z,100.00
2023-02-01T07:48:58.048Z,99.70
2023-02-01T07:51:27.406Z,99.87
2023-02-01T07:53:56.471Z,99.53
2023-02-01T07:56:26.281Z,100.00
2023-02-01T07:58:57.262Z,99.87
2023-02-01T08:01:28.086Z,99.69
2023-02-01T08:04:02.540Z,98.98
2023-02-01T08:06:34.936Z,99.54
2023-02-01T08:09:05.075Z,98.22
2023-02-01T08:11:34.713Z,99.55
2023-02-01T08:14:02.990Z,99.91
2023-02-01T08:16:31.556Z,98.55
2023-02-01T08:19:00.370Z,99.47
2023-02-01T08:21:38.139Z,99.32
2023-02-01T08:24:09.467Z,100.00
2023-02-01T08:26:37.919Z,98.78
2023-02-01T08:29:08.513Z,97.75
2023-02-01T08:31:36.834Z,95.53
2023-02-01T08:34:05.487Z,96.65
2023-02-01T08:36:33.969Z,97.26
2023-02-01T08:39:06.892Z,94.78
2023-02-01T08:41:35.332Z,95.94
2023-02-01T08:44:03.518Z,98.32
2023-02-01T08:46:32.102Z,88.74
2023-02-01T08:49:00.883Z,82.73
2023-02-01T08:51:29.551Z,81.53
2023-02-01T08:53:57.967Z,78.69
2023-02-01T08:56:26.168Z,77.92
2023-02-01T08:58:54.609Z,74.76
2023-02-01T09:01:22.924Z,74.45
2023-02-01T09:03:52.247Z,73.76
2023-02-01T09:06:20.466Z,72.35
2023-02-01T09:08:48.835Z,73.32
2023-02-01T09:11:20.563Z,73.56
2023-02-01T09:13:49.935Z,72.98
2023-02-01T09:16:18.424Z,74.93
2023-02-01T09:18:56.153Z,77.18
2023-02-01T09:21:35.777Z,74.03
2023-02-01T09:24:05.343Z,74.44
2023-02-01T09:26:34.167Z,73.69
2023-02-01T09:29:02.515Z,72.96
2023-02-01T09:31:31.668Z,75.75
2023-02-01T09:34:00.595Z,72.00
2023-02-01T09:36:30.923Z,69.81
2023-02-01T09:39:01.129Z,64.99
2023-02-01T09:41:54.320Z,63.97
2023-02-01T09:44:47.763Z,63.11
2023-02-01T09:47:21.220Z,63.14
2023-02-01T09:50:04.794Z,63.76
2023-02-01T09:52:47.096Z,63.91
2023-02-01T09:55:24.951Z,63.89
2023-02-01T09:57:59.315Z,63.83
2023-02-01T10:00:33.137Z,62.38
2023-02-01T10:03:01.726Z,61.62
2023-02-01T10:05:46.060Z,62.07
2023-02-01T10:08:20.855Z,61.70
2023-02-01T10:10:50.918Z,62.05
2023-02-01T10:13:27.684Z,63.27
2023-02-01T10:16:32.714Z,66.64
2023-02-01T10:19:39.415Z,66.75
2023-02-01T10:22:13.979Z,66.02
2023-02-01T10:24:47.204Z,67.75
2023-02-01T10:27:22.364Z,68.17
2023-02-01T10:30:01.793Z,67.46
2023-02-01T10:32:54.927Z,67.86
2023-02-01T10:35:32.283Z,66.67
2023-02-01T10:38:06.068Z,65.91
2023-02-01T10:40:34.841Z,65.83
2023-02-01T10:43:04.240Z,64.39
2023-02-01T10:45:34.465Z,66.44
2023-02-01T10:48:05.272Z,66.36
2023-02-01T10:50:50.269Z,63.15
2023-02-01T10:53:43.996Z,65.76
2023-02-01T10:56:14.514Z,65.72
2023-02-01T10:58:49.713Z,62.55
2023-02-01T11:01:40.677Z,63.15
2023-02-01T11:04:14.701Z,62.91
2023-02-01T11:06:47.582Z,62.69
2023-02-01T11:09:15.899Z,62.57
2023-02-01T11:11:50.222Z,63.15
2023-02-01T11:14:35.689Z,64.14
2023-02-01T11:17:25.906Z,64.67
2023-02-01T11:20:00.124Z,64.66
2023-02-01T11:22:30.504Z,65.27
2023-02-01T11:25:02.436Z,67.74
2023-02-01T11:27:30.764Z,68.65
2023-02-01T11:30:03.291Z,69.65
2023-02-01T11:32:32.542Z,70.19
2023-02-01T11:35:06.776Z,70.77
2023-02-01T11:37:39.924Z,71.57
2023-02-01T11:40:37.817Z,70.39
2023-02-01T11:43:26.677Z,70.20
2023-02-01T11:45:59.052Z,69.69
2023-02-01T11:48:30.215Z,70.43
2023-02-01T11:51:34.307Z,71.45
2023-02-01T11:54:14.261Z,71.16
2023-02-01T11:56:43.359Z,71.86
2023-02-01T11:59:57.157Z,71.13
2023-02-01T12:03:07.805Z,71.56
2023-02-01T12:05:43.219Z,72.42
2023-02-01T12:08:36.376Z,73.12
2023-02-01T12:11:23.292Z,72.66
2023-02-01T12:14:07.135Z,72.11
2023-02-01T12:17:13.091Z,72.28
2023-02-01T12:20:12.610Z,72.83
2023-02-01T12:23:00.744Z,72.48
2023-02-01T12:26:19.570Z,71.43
2023-02-01T12:29:05.427Z,72.49
2023-02-01T12:31:58.689Z,70.04
2023-02-01T12:34:45.672Z,70.42
2023-02-01T12:37:29.318Z,70.90
2023-02-01T12:40:09.488Z,70.55
2023-02-01T12:42:43.091Z,71.54
2023-02-01T12:45:31.904Z,72.41
2023-02-01T12:48:34.506Z,73.34
2023-02-01T12:51:16.857Z,74.62
2023-02-01T12:53:51.751Z,75.58
2023-02-01T12:56:36.540Z,76.52
2023-02-01T12:59:13.077Z,77.27
2023-02-01T13:01:52.110Z,77.28
2023-02-01T13:04:56.942Z,78.24
2023-02-01T13:07:49.899Z,78.41
2023-02-01T13:10:40.001Z,79.03
2023-02-01T13:13:30.382Z,78.89
2023-02-01T13:16:28.216Z,79.57
2023-02-01T13:19:14.141Z,80.70
2023-02-01T13:21:48.045Z,81.70
2023-02-01T13:24:44.006Z,81.99
2023-02-01T13:27:17.061Z,82.40
2023-02-01T13:30:02.539Z,83.00
2023-02-01T13:33:51.529Z,83.49
2023-02-01T13:36:22.451Z,84.37
2023-02-01T13:39:16.432Z,85.45
2023-02-01T13:42:22.933Z,85.92
2023-02-01T13:44:57.425Z,86.28
2023-02-01T13:47:35.124Z,86.86
2023-02-01T13:50:13.436Z,87.38
2023-02-01T13:52:45.848Z,87.98
2023-02-01T13:55:13.952Z,88.71
2023-02-01T13:57:46.075Z,89.21
2023-02-01T14:00:37.656Z,89.74
2023-02-01T14:03:06.167Z,90.32
2023-02-01T14:05:37.508Z,91.21
2023-02-01T14:08:05.995Z,91.24
2023-02-01T14:10:50.275Z,91.90
2023-02-01T14:13:41.349Z,92.73
2023-02-01T14:16:17.857Z,93.40
2023-02-01T14:18:48.618Z,93.55
2023-02-01T14:21:22.860Z,94.39
2023-02-01T14:23:57.817Z,94.65
2023-02-01T14:26:27.683Z,95.03
2023-02-01T14:29:01.227Z,94.88
2023-02-01T14:31:32.978Z,95.40
2023-02-01T14:34:12.109Z,95.79
2023-02-01T14:36:48.576Z,96.10
2023-02-01T14:39:32.213Z,96.28
2023-02-01T14:42:05.536Z,96.84
2023-02-01T14:44:37.157Z,97.17
2023-02-01T14:47:25.958Z,98.09
2023-02-01T14:50:27.889Z,98.59
2023-02-01T14:53:11.418Z,98.57
2023-02-01T14:56:10.928Z,99.07
2023-02-01T14:58:53.650Z,99.54
2023-02-01T15:01:25.152Z,99.82
2023-02-01T15:03:59.964Z,99.71
2023-02-01T15:06:39.678Z,99.81
2023-02-01T15:09:10.612Z,99.87
2023-02-01T15:11:58.059Z,99.97
2023-02-01T15:14:32.200Z,100.00
2023-02-01T15:17:01.163Z,100.00
2023-02-01T15:19:34.034Z,99.99
2023-02-01T15:22:02.407Z,100.00
2023-02-01T15:24:32.426Z,100.00
2023-02-01T15:27:06.551Z,100.00
2023-02-01T15:29:35.128Z,100.00
2023-02-01T15:32:03.796Z,100.00
2023-02-01T15:35:01.882Z,100.00
2023-02-01T15:37:32.273Z,100.00
2023-02-01T15:40:20.604Z,100.00
2023-02-01T15:43:00.506Z,100.00
2023-02-01T15:45:33.192Z,100.00
2023-02-01T15:48:01.594Z,100.00
2023-02-01T15:50:32.519Z,100.00
2023-02-01T15:53:01.197Z,100.00
2023-02-01T15:55:38.394Z,100.00
2023-02-01T15:58:18.540Z,100.00
2023-02-01T16:00:51.928Z,100.00
2023-02-01T16:03:40.584Z,100.00
2023-02-01T16:06:28.828Z,100.00
2023-02-01T16:09:19.184Z,100.00
2023-02-01T16:11:56.339Z,100.00
2023-02-01T16:14:25.506Z,100.00
2023-02-01T16:16:56.567Z,100.00
2023-02-01T16:19:29.289Z,100.00
2023-02-01T16:21:59.549Z,100.00
2023-02-01T16:24:28.829Z,100.00
2023-02-01T16:26:57.343Z,100.00
2023-02-01T16:29:25.837Z,100.00
2023-02-01T16:31:54.241Z,100.00
2023-02-01T16:34:22.606Z,100.00
2023-02-01T16:36:57.978Z,100.00
2023-02-01T16:39:28.826Z,100.00
2023-02-01T16:41:58.323Z,100.00
2023-02-01T16:44:28.070Z,100.00
2023-02-01T16:46:56.553Z,100.00
2023-02-01T16:49:25.871Z,100.00
2023-02-01T16:51:59.804Z,100.00
2023-02-01T16:54:28.251Z,100.00
2023-02-01T16:56:56.742Z,100.00
2023-02-01T16:59:25.311Z,100.00
2023-02-01T17:01:53.484Z,100.00
2023-02-01T17:04:22.106Z,100.00
2023-02-01T17:06:50.775Z,100.00
2023-02-01T17:09:18.980Z,100.00
2023-02-01T17:11:47.512Z,100.00
2023-02-01T17:14:22.528Z,100.00
2023-02-01T17:16:51.758Z,100.00
2023-02-01T17:19:24.363Z,100.00
2023-02-01T17:21:56.783Z,100.00
2023-02-01T17:24:46.578Z,100.00
2023-02-01T17:27:18.476Z,100.00
2023-02-01T17:29:48.520Z,100.00
2023-02-01T17:32:23.600Z,100.00
2023-02-01T17:34:52.708Z,100.00
2023-02-01T17:37:28.389Z,100.00
2023-02-01T17:39:57.172Z,100.00
2023-02-01T17:42:27.883Z,100.00
2023-02-01T17:45:12.525Z,100.00
2023-02-01T17:47:41.006Z,100.00
2023-02-01T17:50:10.212Z,100.00
2023-02-01T17:52:38.378Z,100.00
2023-02-01T17:55:19.505Z,100.00
2023-02-01T17:57:48.345Z,100.00
2023-02-01T18:00:18.303Z,100.00
2023-02-01T18:02:46.733Z,100.00
2023-02-01T18:05:41.193Z,100.00
2023-02-01T18:08:09.617Z,100.00
2023-02-01T18:10:37.685Z,100.00
2023-02-01T18:13:06.271Z,100.00
2023-02-01T18:15:34.960Z,100.00
2023-02-01T18:18:03.288Z,100.00
2023-02-01T18:20:32.125Z,100.00
2023-02-01T18:23:01.219Z,100.00
2023-02-01T18:25:34.253Z,100.00
2023-02-01T18:28:03.110Z,100.00
2023-02-01T18:30:34.486Z,100.00
2023-02-01T18:33:03.136Z,100.00
2023-02-01T18:35:32.887Z,100.00
2023-02-01T18:38:01.273Z,100.00
2023-02-01T18:40:41.788Z,100.00
2023-02-01T18:43:12.826Z,100.00
2023-02-01T18:45:44.889Z,100.00
2023-02-01T18:48:15.118Z,100.00
2023-02-01T18:50:45.040Z,100.00
2023-02-01T18:53:21.880Z,100.00
2023-02-01T18:55:50.904Z,100.00
2023-02-01T18:58:19.618Z,100.00
2023-02-01T19:00:48.427Z,100.00
2023-02-01T19:03:18.549Z,100.00
2023-02-01T19:05:48.392Z,100.00
2023-02-01T19:08:16.690Z,100.00
2023-02-01T19:10:44.979Z,100.00
2023-02-01T19:13:13.674Z,100.00
2023-02-01T19:15:43.917Z,100.00
2023-02-01T19:18:12.617Z,100.00
2023-02-01T19:20:45.253Z,100.00
2023-02-01T19:23:15.964Z,100.00
2023-02-01T19:25:46.161Z,100.00
2023-02-01T19:28:16.017Z,100.00
2023-02-01T19:30:45.046Z,100.00
2023-02-01T19:33:14.205Z,100.00
2023-02-01T19:35:42.587Z,100.00
2023-02-01T19:38:11.577Z,100.00
2023-02-01T19:40:40.979Z,100.00
2023-02-01T19:43:09.255Z,100.00
2023-02-01T19:45:37.634Z,100.00
2023-02-01T19:48:07.914Z,100.00
2023-02-01T19:50:36.352Z,100.00
2023-02-01T19:53:05.232Z,100.00
2023-02-01T19:55:33.921Z,100.00
2023-02-01T19:58:02.704Z,100.00
2023-02-01T20:00:31.449Z,100.00
2023-02-01T20:02:59.887Z,100.00
2023-02-01T20:05:28.414Z,100.00
2023-02-01T20:07:56.593Z,100.00
2023-02-01T20:10:25.077Z,100.00
2023-02-01T20:12:53.560Z,100.00
2023-02-01T20:15:25.072Z,100.00
2023-02-01T20:17:53.803Z,100.00
2023-02-01T20:20:24.435Z,100.00
2023-02-01T20:22:53.455Z,100.00
2023-02-01T20:25:23.008Z,100.00
2023-02-01T20:27:53.122Z,100.00
2023-02-01T20:30:22.511Z,100.00
2023-02-01T20:32:51.865Z,100.00
2023-02-01T20:35:20.510Z,100.00
2023-02-01T20:37:49.491Z,100.00
2023-02-01T20:40:17.863Z,100.00
2023-02-01T20:42:46.559Z,100.00
2023-02-01T20:45:15.150Z,100.00
2023-02-01T20:47:43.696Z,100.00
2023-02-01T20:50:12.517Z,100.00
2023-02-01T20:52:40.710Z,100.00
2023-02-01T20:55:09.797Z,100.00
2023-02-01T20:57:38.290Z,100.00
2023-02-01T21:00:10.456Z,100.00
2023-02-01T21:02:39.030Z,100.00
2023-02-01T21:05:08.132Z,100.00
2023-02-01T21:07:38.040Z,100.00
2023-02-01T21:10:07.869Z,100.00
2023-02-01T21:12:36.539Z,100.00
2023-02-01T21:15:05.916Z,100.00
2023-02-01T21:17:34.219Z,100.00
2023-02-01T21:20:02.706Z,100.00
2023-02-01T21:22:31.187Z,100.00
2023-02-01T21:25:01.682Z,100.00
2023-02-01T21:27:30.405Z,100.00
2023-02-01T21:29:58.683Z,100.00
2023-02-01T21:32:27.163Z,100.00
2023-02-01T21:34:55.538Z,100.00
2023-02-01T21:37:25.803Z,100.00
2023-02-01T21:39:54.157Z,100.00
2023-02-01T21:42:24.827Z,100.00
2023-02-01T21:44:54.079Z,100.00
2023-02-01T21:47:25.575Z,100.00
2023-02-01T21:49:54.519Z,100.00
2023-02-01T21:52:23.413Z,100.00
2023-02-01T21:54:59.739Z,100.00
2023-02-01T21:57:29.706Z,100.00
2023-02-01T21:59:59.076Z,100.00
2023-02-01T22:02:28.187Z,100.00
2023-02-01T22:04:57.899Z,100.00
2023-02-01T22:07:26.386Z,100.00
2023-02-01T22:09:54.873Z,100.00
2023-02-01T22:12:23.549Z,100.00
2023-02-01T22:14:51.936Z,100.00
2023-02-01T22:17:20.239Z,100.00
2023-02-01T22:19:48.994Z,100.00
2023-02-01T22:22:17.272Z,100.00
2023-02-01T22:24:45.857Z,100.00
2023-02-01T22:27:14.769Z,100.00
2023-02-01T22:29:44.035Z,100.00
2023-02-01T22:32:14.185Z,100.00
2023-02-01T22:34:42.583Z,100.00
2023-02-01T22:37:12.081Z,100.00
2023-02-01T22:39:41.343Z,100.00
2023-02-01T22:42:09.935Z,100.00
2023-02-01T22:44:39.074Z,100.00
2023-02-01T22:47:09.352Z,100.00
2023-02-01T22:49:37.821Z,100.00
2023-02-01T22:52:06.094Z,100.00
2023-02-01T22:54:34.580Z,100.00
2023-02-01T22:57:03.669Z,100.00
2023-02-01T22:59:32.048Z,100.00
2023-02-01T23:02:01.269Z,100.00
2023-02-01T23:04:29.624Z,100.00
2023-02-01T23:06:57.997Z,100.00
2023-02-01T23:09:26.580Z,100.00
2023-02-01T23:11:55.386Z,100.00
2023-02-01T23:14:24.056Z,100.00
2023-02-01T23:16:52.233Z,100.00
2023-02-01T23:19:21.226Z,100.00
2023-02-01T23:21:49.822Z,100.00
2023-02-01T23:24:18.293Z,100.00
2023-02-01T23:26:46.619Z,100.00
2023-02-01T23:29:18.223Z,100.00
2023-02-01T23:31:46.428Z,100.00
2023-02-01T23:34:15.074Z,100.00
2023-02-01T23:36:43.560Z,100.00
2023-02-01T23:39:12.049Z,100.00
2023-02-01T23:41:40.327Z,100.00
2023-02-01T23:44:09.215Z,100.00
2023-02-01T23:46:40.309Z,100.00
2023-02-01T23:49:09.752Z,100.00
2023-02-01T23:51:38.235Z,100.00
2023-02-01T23:54:08.517Z,100.00
2023-02-01T23:56:41.569Z,100.00
2023-02-01T23:59:14.270Z,100.00
